createdAt,value
2023-02-20T00:00:32.256Z,0.03
2023-02-20T00:03:00.278Z,0.10
2023-02-20T00:05:27.966Z,0.20
2023-02-20T00:07:57.054Z,0.10
2023-02-20T00:10:25.174Z,1.70
2023-02-20T00:12:53.063Z,0.10
2023-02-20T00:15:21.269Z,0.20
2023-02-20T00:17:49.491Z,0.00
2023-02-20T00:20:18.397Z,0.03
2023-02-20T00:22:46.044Z,0.80
2023-02-20T00:25:16.482Z,0.50
2023-02-20T00:27:44.422Z,0.10
2023-02-20T00:30:15.628Z,0.15
2023-02-20T00:32:43.402Z,0.20
2023-02-20T00:35:11.152Z,0.50
2023-02-20T00:37:39.929Z,2.45
2023-02-20T00:40:08.701Z,0.00
2023-02-20T00:42:37.754Z,0.10
2023-02-20T00:45:06.035Z,0.40
2023-02-20T00:47:33.706Z,0.63
2023-02-20T00:50:01.370Z,0.00
2023-02-20T00:52:29.267Z,0.30
2023-02-20T00:54:56.926Z,0.40
2023-02-20T00:57:24.832Z,0.38
2023-02-20T00:59:54.272Z,0.35
2023-02-20T01:02:21.921Z,0.00
2023-02-20T01:04:49.867Z,0.10
2023-02-20T01:07:17.620Z,5.50
2023-02-20T01:09:45.537Z,0.10
2023-02-20T01:12:13.167Z,0.08
2023-02-20T01:14:41.835Z,1.02
2023-02-20T01:17:10.868Z,0.30
2023-02-20T01:19:38.492Z,0.10
2023-02-20T01:22:08.851Z,1.40
2023-02-20T01:24:36.620Z,0.50
2023-02-20T01:27:04.696Z,0.15
2023-02-20T01:29:32.387Z,0.10
2023-02-20T01:32:00.238Z,0.20
2023-02-20T01:34:29.379Z,0.03
2023-02-20T01:36:57.335Z,1.15
2023-02-20T01:39:26.801Z,0.10
2023-02-20T01:41:57.423Z,0.20
2023-02-20T01:44:28.010Z,0.10
2023-02-20T01:46:56.714Z,0.50
2023-02-20T01:49:31.482Z,0.47
2023-02-20T01:52:03.854Z,0.80
2023-02-20T01:54:32.066Z,0.00
2023-02-20T01:57:02.468Z,0.40
2023-02-20T01:59:33.600Z,0.20
2023-02-20T02:02:01.383Z,0.60
2023-02-20T02:04:30.911Z,1.38
2023-02-20T02:06:58.591Z,0.13
2023-02-20T02:09:36.155Z,0.30
2023-02-20T02:12:03.921Z,0.30
2023-02-20T02:14:31.608Z,0.00
2023-02-20T02:17:11.613Z,0.30
2023-02-20T02:19:54.720Z,1.30
2023-02-20T02:22:44.270Z,0.40
2023-02-20T02:25:20.905Z,0.20
2023-02-20T02:28:15.047Z,3.00
2023-02-20T02:31:21.570Z,0.50
2023-02-20T02:34:05.976Z,0.10
2023-02-20T02:36:44.491Z,0.00
2023-02-20T02:39:18.431Z,0.22
2023-02-20T02:41:52.003Z,0.30
2023-02-20T02:44:23.262Z,0.37
2023-02-20T02:46:57.065Z,3.50
2023-02-20T02:49:28.112Z,0.30
2023-02-20T02:51:57.921Z,2.65
2023-02-20T02:54:30.331Z,0.00
2023-02-20T02:57:21.111Z,1.00
2023-02-20T02:59:50.401Z,0.80
2023-02-20T03:02:20.100Z,0.15
2023-02-20T03:04:50.328Z,1.10
2023-02-20T03:07:20.578Z,0.60
2023-02-20T03:09:50.096Z,0.10
2023-02-20T03:12:19.237Z,6.80
2023-02-20T03:15:06.999Z,0.20
2023-02-20T03:17:37.814Z,0.68
2023-02-20T03:20:10.403Z,0.80
2023-02-20T03:22:42.661Z,4.07
2023-02-20T03:25:14.575Z,1.23
2023-02-20T03:27:46.095Z,5.53
2023-02-20T03:30:17.396Z,4.05
2023-02-20T03:33:03.931Z,9.00
2023-02-20T03:35:51.666Z,13.27
2023-02-20T03:38:40.298Z,19.17
2023-02-20T03:41:26.720Z,19.40
2023-02-20T03:43:54.851Z,27.60
2023-02-20T03:46:24.396Z,29.05
2023-02-20T03:48:54.812Z,29.15
2023-02-20T03:51:23.215Z,30.35
2023-02-20T03:53:52.849Z,30.73
2023-02-20T03:56:22.632Z,26.15
2023-02-20T03:58:56.668Z,29.47
2023-02-20T04:01:26.959Z,26.92
2023-02-20T04:03:57.346Z,25.88
2023-02-20T04:06:28.318Z,24.95
2023-02-20T04:09:01.575Z,32.03
2023-02-20T04:11:32.346Z,30.85
2023-02-20T04:14:00.917Z,25.85
2023-02-20T04:16:28.641Z,27.70
2023-02-20T04:18:56.320Z,28.00
2023-02-20T04:21:29.608Z,27.15
2023-02-20T04:24:04.215Z,26.90
2023-02-20T04:26:31.887Z,26.50
2023-02-20T04:28:59.564Z,30.42
2023-02-20T04:31:27.886Z,27.87
2023-02-20T04:33:55.906Z,25.75
2023-02-20T04:36:23.847Z,28.63
2023-02-20T04:38:51.904Z,34.17
2023-02-20T04:41:21.236Z,30.20
2023-02-20T04:43:49.360Z,35.10
2023-02-20T04:46:17.160Z,31.00
2023-02-20T04:48:45.156Z,30.65
2023-02-20T04:51:13.089Z,26.20
2023-02-20T04:53:40.774Z,32.78
2023-02-20T04:56:08.539Z,34.53
2023-02-20T04:58:37.727Z,33.50
2023-02-20T05:01:05.506Z,24.38
2023-02-20T05:03:33.218Z,30.35
2023-02-20T05:06:00.905Z,30.45
2023-02-20T05:08:31.901Z,34.28
2023-02-20T05:10:59.556Z,29.03
2023-02-20T05:13:27.468Z,32.25
2023-02-20T05:15:56.894Z,32.72
2023-02-20T05:18:27.975Z,33.13
2023-02-20T05:21:13.343Z,35.30
2023-02-20T05:23:41.169Z,36.03
2023-02-20T05:26:10.764Z,29.35
2023-02-20T05:28:39.768Z,32.17
2023-02-20T05:31:09.484Z,33.53
2023-02-20T05:33:37.152Z,36.17
2023-02-20T05:36:05.537Z,34.42
2023-02-20T05:38:33.217Z,21.45
2023-02-20T05:41:01.126Z,28.80
2023-02-20T05:43:28.792Z,29.97
2023-02-20T05:45:56.506Z,29.23
2023-02-20T05:48:25.659Z,32.15
2023-02-20T05:50:54.779Z,23.25
2023-02-20T05:53:22.509Z,31.57
2023-02-20T05:55:50.378Z,25.08
2023-02-20T05:58:18.321Z,33.33
2023-02-20T06:00:45.965Z,28.95
2023-02-20T06:03:15.793Z,30.35
2023-02-20T06:05:44.972Z,23.13
2023-02-20T06:08:12.689Z,19.95
2023-02-20T06:10:40.503Z,31.90
2023-02-20T06:13:08.240Z,26.40
2023-02-20T06:15:36.132Z,23.43
2023-02-20T06:18:03.833Z,36.05
2023-02-20T06:20:31.527Z,18.10
2023-02-20T06:23:00.709Z,26.70
2023-02-20T06:25:28.375Z,37.00
2023-02-20T06:27:56.082Z,35.42
2023-02-20T06:30:24.050Z,33.38
2023-02-20T06:32:51.903Z,33.40
2023-02-20T06:35:19.812Z,40.70
2023-02-20T06:37:47.503Z,30.73
2023-02-20T06:40:16.547Z,32.50
2023-02-20T06:42:44.222Z,25.83
2023-02-20T06:45:15.216Z,34.20
2023-02-20T06:47:43.249Z,40.03
2023-02-20T06:50:11.148Z,41.38
2023-02-20T06:52:39.188Z,39.50
2023-02-20T06:55:07.344Z,43.75
2023-02-20T06:57:36.418Z,43.17
2023-02-20T07:00:05.543Z,30.83
2023-02-20T07:02:34.729Z,35.22
2023-02-20T07:05:02.391Z,32.67
2023-02-20T07:07:30.358Z,41.30
2023-02-20T07:10:00.003Z,28.63
2023-02-20T07:12:30.975Z,35.53
2023-02-20T07:15:00.362Z,40.53
2023-02-20T07:17:28.023Z,35.23
2023-02-20T07:19:57.514Z,29.65
2023-02-20T07:22:25.179Z,33.42
2023-02-20T07:24:53.017Z,39.30
2023-02-20T07:27:20.995Z,21.73
2023-02-20T07:29:49.084Z,32.20
2023-02-20T07:32:20.887Z,38.30
2023-02-20T07:35:03.006Z,35.80
2023-02-20T07:37:32.016Z,36.80
2023-02-20T07:39:59.709Z,37.20
2023-02-20T07:42:27.507Z,35.40
2023-02-20T07:44:55.155Z,38.50
2023-02-20T07:47:24.511Z,40.95
2023-02-20T07:49:52.226Z,30.63
2023-02-20T07:52:19.886Z,28.15
2023-02-20T07:54:47.759Z,38.67
2023-02-20T07:57:15.923Z,40.63
2023-02-20T07:59:43.722Z,40.45
2023-02-20T08:02:11.400Z,39.55
2023-02-20T08:04:40.459Z,42.40
2023-02-20T08:07:08.119Z,42.15
2023-02-20T08:09:36.063Z,44.17
2023-02-20T08:12:03.794Z,38.60
2023-02-20T08:14:31.606Z,38.90
2023-02-20T08:16:59.276Z,33.50
2023-02-20T08:19:26.922Z,43.95
2023-02-20T08:21:56.868Z,44.27
2023-02-20T08:24:24.504Z,33.22
2023-02-20T08:26:52.190Z,42.38
2023-02-20T08:29:20.112Z,34.05
2023-02-20T08:31:47.888Z,45.22
2023-02-20T08:34:15.628Z,37.05
2023-02-20T08:36:43.294Z,38.95
2023-02-20T08:39:12.388Z,40.78
2023-02-20T08:41:43.476Z,38.07
2023-02-20T08:44:11.420Z,35.07
2023-02-20T08:46:39.031Z,40.20
2023-02-20T08:49:06.728Z,39.13
2023-02-20T08:51:34.370Z,39.08
2023-02-20T08:54:02.018Z,40.08
2023-02-20T08:56:31.630Z,39.47
2023-02-20T08:58:59.381Z,36.33
2023-02-20T09:01:26.928Z,29.25
2023-02-20T09:03:54.724Z,43.07
2023-02-20T09:06:24.647Z,32.92
2023-02-20T09:08:52.459Z,40.95
2023-02-20T09:11:20.795Z,40.70
2023-02-20T09:13:50.548Z,40.58
2023-02-20T09:16:20.928Z,38.60
2023-02-20T09:18:49.007Z,26.85
2023-02-20T09:21:19.819Z,40.13
2023-02-20T09:23:47.493Z,43.90
2023-02-20T09:26:15.468Z,42.28
2023-02-20T09:28:43.212Z,33.25
2023-02-20T09:31:12.883Z,26.77
2023-02-20T09:33:40.515Z,41.58
2023-02-20T09:36:09.016Z,43.10
2023-02-20T09:38:36.858Z,40.58
2023-02-20T09:41:04.877Z,35.35
2023-02-20T09:43:41.528Z,36.77
2023-02-20T09:46:14.950Z,31.80
2023-02-20T09:48:54.632Z,27.25
2023-02-20T09:51:24.413Z,39.33
2023-02-20T09:53:56.417Z,42.60
2023-02-20T09:56:28.196Z,41.85
2023-02-20T09:59:00.643Z,38.85
2023-02-20T10:01:30.566Z,38.45
2023-02-20T10:04:00.146Z,25.73
2023-02-20T10:06:30.124Z,35.30
2023-02-20T10:08:59.420Z,40.85
2023-02-20T10:11:39.320Z,42.30
2023-02-20T10:14:20.704Z,37.47
2023-02-20T10:16:53.226Z,25.92
2023-02-20T10:19:24.695Z,30.02
2023-02-20T10:21:59.464Z,24.92
2023-02-20T10:24:38.388Z,32.28
2023-02-20T10:27:11.814Z,27.13
2023-02-20T10:29:40.653Z,38.85
2023-02-20T10:32:12.237Z,30.23
2023-02-20T10:34:43.066Z,34.55
2023-02-20T10:37:14.668Z,39.53
2023-02-20T10:39:47.266Z,29.05
2023-02-20T10:42:17.777Z,33.70
2023-02-20T10:44:51.979Z,30.92
2023-02-20T10:47:27.976Z,32.63
2023-02-20T10:49:59.368Z,35.83
2023-02-20T10:52:34.443Z,23.10
2023-02-20T10:55:07.374Z,26.52
2023-02-20T10:57:38.420Z,22.80
2023-02-20T11:00:10.904Z,31.63
2023-02-20T11:02:43.108Z,26.73
2023-02-20T11:05:13.629Z,36.03
2023-02-20T11:07:41.343Z,23.45
2023-02-20T11:10:09.870Z,33.08
2023-02-20T11:12:40.997Z,34.33
2023-02-20T11:15:11.932Z,31.70
2023-02-20T11:17:41.564Z,22.98
2023-02-20T11:20:42.320Z,32.72
2023-02-20T11:23:11.656Z,26.05
2023-02-20T11:25:42.078Z,30.60
2023-02-20T11:28:11.875Z,29.30
2023-02-20T11:30:41.792Z,24.52
2023-02-20T11:33:14.150Z,33.00
2023-02-20T11:35:42.530Z,25.90
2023-02-20T11:38:31.749Z,31.23
2023-02-20T11:41:20.274Z,35.70
2023-02-20T11:44:00.860Z,35.38
2023-02-20T11:46:29.478Z,36.90
2023-02-20T11:49:05.505Z,27.73
2023-02-20T11:51:39.142Z,34.65
2023-02-20T11:54:14.763Z,27.98
2023-02-20T11:57:00.409Z,32.83
2023-02-20T11:59:32.290Z,33.72
2023-02-20T12:02:13.665Z,34.15
2023-02-20T12:04:43.220Z,26.45
2023-02-20T12:07:19.997Z,30.80
2023-02-20T12:09:51.481Z,27.45
2023-02-20T12:12:23.671Z,27.10
2023-02-20T12:14:51.531Z,38.28
2023-02-20T12:17:26.028Z,33.50
2023-02-20T12:20:00.077Z,35.38
2023-02-20T12:22:33.972Z,30.90
2023-02-20T12:25:11.680Z,30.13
2023-02-20T12:27:54.845Z,31.52
2023-02-20T12:30:45.405Z,36.58
2023-02-20T12:33:27.737Z,24.20
2023-02-20T12:36:01.314Z,22.87
2023-02-20T12:38:39.561Z,34.70
2023-02-20T12:41:19.429Z,37.00
2023-02-20T12:43:50.844Z,32.17
2023-02-20T12:46:23.406Z,39.05
2023-02-20T12:49:18.003Z,24.98
2023-02-20T12:51:50.891Z,27.98
2023-02-20T12:54:26.329Z,29.85
2023-02-20T12:57:02.786Z,28.25
2023-02-20T12:59:33.316Z,32.07
2023-02-20T13:02:07.269Z,21.00
2023-02-20T13:04:43.231Z,27.40
2023-02-20T13:07:18.696Z,34.20
2023-02-20T13:09:54.281Z,35.33
2023-02-20T13:12:22.411Z,25.40
2023-02-20T13:14:57.338Z,23.27
2023-02-20T13:17:32.606Z,29.77
2023-02-20T13:20:07.953Z,34.90
2023-02-20T13:22:37.009Z,30.52
2023-02-20T13:25:39.366Z,31.85
2023-02-20T13:28:22.736Z,37.42
2023-02-20T13:31:08.568Z,27.63
2023-02-20T13:33:39.511Z,28.53
2023-02-20T13:36:08.656Z,32.80
2023-02-20T13:38:37.717Z,27.30
2023-02-20T13:50:35.275Z,21.52
2023-02-20T13:53:04.684Z,35.50
2023-02-20T13:55:34.200Z,37.88
2023-02-20T13:58:12.969Z,28.02
2023-02-20T14:00:52.450Z,31.42
2023-02-20T14:03:23.455Z,27.52
2023-02-20T14:06:07.304Z,21.92
2023-02-20T14:08:35.272Z,27.13
2023-02-20T14:11:08.985Z,31.88
2023-02-20T14:13:41.278Z,29.77
2023-02-20T14:19:25.713Z,30.20
2023-02-20T14:21:53.594Z,33.53
2023-02-20T14:24:24.162Z,28.35
2023-02-20T14:26:56.214Z,31.98
2023-02-20T14:29:28.794Z,33.10
2023-02-20T14:31:57.751Z,25.63
2023-02-20T14:34:29.384Z,27.88
2023-02-20T14:37:06.059Z,30.73
2023-02-20T14:39:40.641Z,32.87
2023-02-20T14:42:15.651Z,34.95
2023-02-20T14:44:43.434Z,26.23
2023-02-20T14:47:13.809Z,19.17
2023-02-20T14:49:41.844Z,29.10
2023-02-20T14:52:18.632Z,23.00
2023-02-20T14:54:58.136Z,32.45
2023-02-20T14:57:27.448Z,27.13
2023-02-20T15:00:10.452Z,33.60
2023-02-20T15:02:38.265Z,37.83
2023-02-20T15:05:08.827Z,35.20
2023-02-20T15:07:39.003Z,28.80
2023-02-20T15:10:27.472Z,29.05
2023-02-20T15:12:59.082Z,37.30
2023-02-20T15:15:26.852Z,28.87
2023-02-20T15:18:07.447Z,33.78
2023-02-20T15:20:37.623Z,45.63
2023-02-20T15:23:25.238Z,41.10
2023-02-20T15:25:53.069Z,39.47
2023-02-20T15:28:31.671Z,22.33
2023-02-20T15:31:13.622Z,39.10
2023-02-20T15:33:42.874Z,34.97
2023-02-20T15:36:14.350Z,39.30
2023-02-20T15:38:42.640Z,42.45
2023-02-20T15:41:12.235Z,35.58
2023-02-20T15:43:51.249Z,34.40
2023-02-20T15:46:20.702Z,37.92
2023-02-20T15:48:48.648Z,36.20
2023-02-20T15:51:19.993Z,33.92
2023-02-20T15:53:48.297Z,24.88
2023-02-20T15:56:16.933Z,28.08
2023-02-20T15:58:47.305Z,35.00
2023-02-20T16:01:16.964Z,18.95
2023-02-20T16:03:52.316Z,19.80
2023-02-20T16:06:21.104Z,5.95
2023-02-20T16:08:50.376Z,2.40
2023-02-20T16:11:18.310Z,1.60
2023-02-20T16:13:48.664Z,0.52
2023-02-20T16:16:25.183Z,1.00
2023-02-20T16:18:55.046Z,0.40
2023-02-20T16:21:24.501Z,0.50
2023-02-20T16:23:52.552Z,0.90
2023-02-20T16:26:22.374Z,0.50
2023-02-20T16:28:54.499Z,0.70
2023-02-20T16:31:22.419Z,3.40
2023-02-20T16:33:50.460Z,0.20
2023-02-20T16:36:24.673Z,0.70
2023-02-20T16:38:53.101Z,0.40
2023-02-20T16:41:20.767Z,2.35
2023-02-20T16:43:51.056Z,0.40
2023-02-20T16:46:29.612Z,0.10
2023-02-20T16:49:04.720Z,1.73
2023-02-20T16:51:32.615Z,0.20
2023-02-20T16:54:00.353Z,0.10
2023-02-20T16:56:27.990Z,0.30
2023-02-20T16:58:58.721Z,0.70
2023-02-20T17:01:26.441Z,0.70
2023-02-20T17:03:54.107Z,0.30
2023-02-20T17:06:23.468Z,1.47
2023-02-20T17:08:51.131Z,0.00
2023-02-20T17:11:18.781Z,0.20
2023-02-20T17:13:46.676Z,0.30
2023-02-20T17:16:25.686Z,0.70
2023-02-20T17:18:58.198Z,0.10
2023-02-20T17:21:25.934Z,0.10
2023-02-20T17:23:53.827Z,0.30
2023-02-20T17:26:21.457Z,0.40
2023-02-20T17:28:49.345Z,0.63
2023-02-20T17:31:18.782Z,1.90
2023-02-20T17:33:46.436Z,0.20
2023-02-20T17:36:14.422Z,0.20
2023-02-20T17:38:43.319Z,0.43
2023-02-20T17:41:11.116Z,0.40
2023-02-20T17:43:39.551Z,0.40
2023-02-20T17:46:07.196Z,0.30
2023-02-20T17:48:36.236Z,0.17
2023-02-20T17:51:03.920Z,0.60
2023-02-20T17:53:31.602Z,1.00
2023-02-20T17:55:59.272Z,0.60
2023-02-20T17:58:27.049Z,1.05
2023-02-20T18:00:55.170Z,1.15
2023-02-20T18:03:22.888Z,1.83
2023-02-20T18:05:52.230Z,0.28
2023-02-20T18:08:20.144Z,1.10
2023-02-20T18:10:48.085Z,0.52
2023-02-20T18:13:15.986Z,3.30
2023-02-20T18:15:43.889Z,0.50
2023-02-20T18:18:14.659Z,0.90
2023-02-20T18:20:42.567Z,0.85
2023-02-20T18:23:12.334Z,3.70
2023-02-20T18:25:41.313Z,1.00
2023-02-20T18:28:09.502Z,1.10
2023-02-20T18:30:37.411Z,1.45
2023-02-20T18:33:05.220Z,3.30
2023-02-20T18:35:32.942Z,0.25
2023-02-20T18:38:01.552Z,2.47
2023-02-20T18:40:30.924Z,0.13
2023-02-20T18:42:58.569Z,1.00
2023-02-20T18:45:26.220Z,0.30
2023-02-20T18:47:55.251Z,1.30
2023-02-20T18:50:22.969Z,0.20
2023-02-20T18:52:50.902Z,0.90
2023-02-20T18:55:19.172Z,0.75
2023-02-20T18:57:49.128Z,0.55
2023-02-20T19:00:19.576Z,0.50
2023-02-20T19:02:48.464Z,3.00
2023-02-20T19:05:16.179Z,3.85
2023-02-20T19:07:44.425Z,1.80
2023-02-20T19:10:13.477Z,0.77
2023-02-20T19:12:41.208Z,3.20
2023-02-20T19:15:10.739Z,5.25
2023-02-20T19:17:40.067Z,5.45
2023-02-20T19:20:11.564Z,1.55
2023-02-20T19:22:39.347Z,2.20
2023-02-20T19:25:09.255Z,0.90
2023-02-20T19:27:36.909Z,0.30
2023-02-20T19:30:05.274Z,0.40
2023-02-20T19:32:35.023Z,1.57
2023-02-20T19:35:02.820Z,2.00
2023-02-20T19:37:30.792Z,0.80
2023-02-20T19:39:58.521Z,0.85
2023-02-20T19:42:28.651Z,0.20
2023-02-20T19:44:56.428Z,1.50
2023-02-20T19:47:24.409Z,0.35
2023-02-20T19:49:53.535Z,1.80
2023-02-20T19:52:21.178Z,1.30
2023-02-20T19:54:49.013Z,2.80
2023-02-20T19:57:16.970Z,0.70
2023-02-20T19:59:44.836Z,0.35
2023-02-20T20:02:13.324Z,1.20
2023-02-20T20:04:41.305Z,0.63
2023-02-20T20:07:10.336Z,1.48
2023-02-20T20:09:38.434Z,3.30
2023-02-20T20:12:28.928Z,1.80
2023-02-20T20:14:57.177Z,1.60
2023-02-20T20:17:24.842Z,0.50
2023-02-20T20:19:58.936Z,3.40
2023-02-20T20:22:29.380Z,0.50
2023-02-20T20:24:57.043Z,2.80
2023-02-20T20:27:24.889Z,0.43
2023-02-20T20:29:52.649Z,1.60
2023-02-20T20:32:22.072Z,1.30
2023-02-20T20:34:52.465Z,0.45
2023-02-20T20:40:32.742Z,0.63
2023-02-20T20:43:00.367Z,3.17
2023-02-20T20:45:28.030Z,3.05
2023-02-20T20:47:55.841Z,1.27
2023-02-20T20:50:27.689Z,7.75
2023-02-20T20:52:55.596Z,1.48
2023-02-20T20:55:23.224Z,9.20
2023-02-20T20:57:54.609Z,0.77
2023-02-20T21:00:23.897Z,1.30
2023-02-20T21:02:52.002Z,0.80
2023-02-20T21:05:20.946Z,0.25
2023-02-20T21:07:48.552Z,1.48
2023-02-20T21:10:16.273Z,0.35
2023-02-20T21:12:44.044Z,1.77
2023-02-20T21:15:14.272Z,2.00
2023-02-20T21:17:43.120Z,1.20
2023-02-20T21:20:14.524Z,0.52
2023-02-20T21:22:42.218Z,1.30
2023-02-20T21:25:09.944Z,1.08
2023-02-20T21:27:37.626Z,4.10
2023-02-20T21:30:06.278Z,2.25
2023-02-20T21:32:35.496Z,0.40
2023-02-20T21:35:03.224Z,2.00
2023-02-20T21:37:30.974Z,1.58
2023-02-20T21:39:58.669Z,0.90
2023-02-20T21:42:43.765Z,1.52
2023-02-20T21:45:11.654Z,3.37
2023-02-20T21:47:40.673Z,1.60
2023-02-20T21:50:09.077Z,1.50
2023-02-20T21:52:37.644Z,2.95
2023-02-20T21:55:08.127Z,0.77
2023-02-20T21:57:35.771Z,0.60
2023-02-20T22:00:02.685Z,3.25
2023-02-20T22:02:29.362Z,2.13
2023-02-20T22:04:57.313Z,1.50
2023-02-20T22:07:42.697Z,2.10
2023-02-20T22:10:29.095Z,1.90
2023-02-20T22:13:14.363Z,0.13
2023-02-20T22:15:59.694Z,0.25
2023-02-20T22:18:45.006Z,0.70
2023-02-20T22:21:36.795Z,1.77
2023-02-20T22:24:30.490Z,1.45
2023-02-20T22:27:22.872Z,0.60
2023-02-20T22:30:08.181Z,2.15
2023-02-20T22:32:53.599Z,4.20
2023-02-20T22:35:38.855Z,2.08
2023-02-20T22:38:25.542Z,0.80
2023-02-20T22:41:19.179Z,1.65
2023-02-20T22:44:04.498Z,1.00
2023-02-20T22:46:49.920Z,0.50
2023-02-20T22:49:35.237Z,1.27
2023-02-20T22:52:20.720Z,0.60
2023-02-20T22:55:08.396Z,1.10
2023-02-20T22:57:53.629Z,1.30
2023-02-20T23:00:39.108Z,1.20
2023-02-20T23:03:24.989Z,0.40
2023-02-20T23:06:19.087Z,1.73
2023-02-20T23:09:05.116Z,0.87
2023-02-20T23:11:52.720Z,0.50
2023-02-20T23:14:37.951Z,0.40
2023-02-20T23:17:34.953Z,5.60
2023-02-20T23:20:21.500Z,1.52
2023-02-20T23:23:06.927Z,0.80
2023-02-20T23:25:52.199Z,0.70
2023-02-20T23:28:38.837Z,3.78
2023-02-20T23:31:24.139Z,11.50
2023-02-20T23:34:09.441Z,1.67
2023-02-20T23:36:54.882Z,2.65
2023-02-20T23:39:40.099Z,1.10
2023-02-20T23:42:25.678Z,3.28
2023-02-20T23:45:12.247Z,0.77
2023-02-20T23:47:59.134Z,0.67
2023-02-20T23:50:44.655Z,2.83
2023-02-20T23:53:29.967Z,1.63
2023-02-20T23:56:15.470Z,0.10
2023-02-20T23:59:00.779Z,0.82
